createdAt,value
2019-02-17T00:00:41.813Z,53.43
2019-02-17T00:03:33.387Z,53.52
2019-02-17T00:06:23.751Z,53.50
2019-02-17T00:09:14.749Z,53.66
2019-02-17T00:12:04.906Z,53.70
2019-02-17T00:14:54.227Z,53.76
2019-02-17T00:17:44.194Z,53.86
2019-02-17T00:20:34.025Z,54.28
2019-02-17T00:23:24.445Z,55.35
2019-02-17T00:26:14.651Z,55.24
2019-02-17T00:29:04.244Z,55.44
2019-02-17T00:31:54.351Z,55.12
2019-02-17T00:34:45.396Z,54.83
2019-02-17T00:37:35.397Z,54.69
2019-02-17T00:40:25.351Z,54.73
2019-02-17T00:43:15.388Z,54.53
2019-02-17T00:46:05.358Z,54.34
2019-02-17T00:48:55.138Z,54.11
2019-02-17T00:51:45.229Z,53.90
2019-02-17T00:54:35.117Z,53.86
2019-02-17T00:57:24.918Z,53.78
2019-02-17T01:00:15.304Z,53.85
2019-02-17T01:03:05.667Z,53.88
2019-02-17T01:05:55.491Z,54.01
2019-02-17T01:08:45.505Z,53.94
2019-02-17T01:11:34.990Z,53.95
2019-02-17T01:14:25.071Z,53.93
2019-02-17T01:17:14.998Z,53.97
2019-02-17T01:20:05.847Z,54.08
2019-02-17T01:22:55.499Z,54.01
2019-02-17T01:25:45.856Z,53.99
2019-02-17T01:28:35.928Z,54.11
2019-02-17T01:31:25.618Z,54.17
2019-02-17T01:34:15.718Z,54.23
2019-02-17T01:37:06.212Z,54.32
2019-02-17T01:39:56.343Z,54.42
2019-02-17T01:42:46.533Z,54.41
2019-02-17T01:45:36.358Z,54.58
2019-02-17T01:48:26.085Z,54.64
2019-02-17T01:51:16.733Z,54.95
2019-02-17T01:54:06.705Z,54.93
2019-02-17T01:56:56.757Z,55.10
2019-02-17T01:59:46.120Z,55.03
2019-02-17T02:02:36.224Z,55.04
2019-02-17T02:05:26.075Z,54.98
2019-02-17T02:08:15.727Z,55.17
2019-02-17T02:11:06.379Z,55.26
2019-02-17T02:13:56.389Z,55.37
2019-02-17T02:16:46.119Z,55.32
2019-02-17T02:19:35.978Z,55.53
2019-02-17T02:22:25.482Z,55.56
2019-02-17T02:25:15.432Z,55.62
2019-02-17T02:28:05.246Z,55.61
2019-02-17T02:30:54.635Z,55.60
2019-02-17T02:33:47.395Z,55.68
2019-02-17T02:36:37.402Z,55.77
2019-02-17T02:39:27.684Z,55.85
2019-02-17T02:42:17.940Z,55.98
2019-02-17T02:45:09.088Z,55.97
2019-02-17T02:47:58.822Z,55.94
2019-02-17T02:50:48.839Z,56.01
2019-02-17T02:53:39.009Z,56.11
2019-02-17T02:56:28.942Z,56.16
2019-02-17T02:59:19.087Z,56.13
2019-02-17T03:02:08.909Z,56.52
2019-02-17T03:04:59.093Z,56.69
2019-02-17T03:07:49.217Z,56.70
2019-02-17T03:10:38.851Z,56.50
2019-02-17T03:13:28.586Z,56.47
2019-02-17T03:16:18.451Z,56.48
2019-02-17T03:19:08.590Z,56.49
2019-02-17T03:21:58.371Z,56.57
2019-02-17T03:24:48.112Z,56.57
2019-02-17T03:27:37.860Z,56.60
2019-02-17T03:30:27.642Z,56.53
2019-02-17T03:33:17.875Z,56.54
2019-02-17T03:36:08.229Z,56.59
2019-02-17T03:38:57.972Z,56.53
2019-02-17T03:41:48.131Z,56.55
2019-02-17T03:44:37.992Z,56.63
2019-02-17T03:47:28.038Z,57.00
2019-02-17T03:50:18.134Z,56.81
2019-02-17T03:53:08.335Z,56.93
2019-02-17T03:55:58.116Z,56.88
2019-02-17T03:58:47.968Z,56.90
2019-02-17T04:01:37.682Z,57.24
2019-02-17T04:04:27.510Z,57.75
2019-02-17T04:07:17.407Z,57.96
2019-02-17T04:10:08.315Z,57.60
2019-02-17T04:12:58.484Z,57.47
2019-02-17T04:15:49.097Z,57.24
2019-02-17T04:18:39.910Z,57.10
2019-02-17T04:21:29.631Z,57.06
2019-02-17T04:24:19.682Z,56.97
2019-02-17T04:27:09.181Z,56.88
2019-02-17T04:29:59.301Z,56.91
2019-02-17T04:32:49.373Z,56.89
2019-02-17T04:35:39.157Z,56.91
2019-02-17T04:38:29.420Z,56.99
2019-02-17T04:41:19.783Z,57.01
2019-02-17T04:44:10.472Z,56.89
2019-02-17T04:47:01.467Z,56.90
2019-02-17T04:49:50.894Z,57.00
2019-02-17T04:52:40.466Z,57.01
2019-02-17T04:55:30.611Z,56.99
2019-02-17T04:58:20.644Z,57.10
2019-02-17T05:01:10.354Z,57.15
2019-02-17T05:04:00.295Z,57.24
2019-02-17T05:06:50.461Z,57.59
2019-02-17T05:09:40.325Z,58.21
2019-02-17T05:12:30.047Z,58.31
2019-02-17T05:15:20.039Z,58.14
2019-02-17T05:18:10.277Z,58.00
2019-02-17T05:21:00.332Z,57.85
2019-02-17T05:23:50.394Z,57.85
2019-02-17T05:26:40.481Z,57.82
2019-02-17T05:29:30.804Z,57.89
2019-02-17T05:32:20.712Z,57.77
2019-02-17T05:35:10.820Z,57.80
2019-02-17T05:38:00.596Z,57.80
2019-02-17T05:40:50.394Z,57.78
2019-02-17T05:43:40.378Z,57.79
2019-02-17T05:46:32.064Z,58.02
2019-02-17T05:49:21.905Z,58.25
2019-02-17T05:52:11.797Z,58.06
2019-02-17T05:55:01.450Z,58.01
2019-02-17T05:57:51.325Z,58.04
2019-02-17T06:00:41.605Z,58.01
2019-02-17T06:03:31.545Z,57.99
2019-02-17T06:06:21.391Z,57.91
2019-02-17T06:09:11.434Z,57.91
2019-02-17T06:12:01.020Z,58.01
2019-02-17T06:14:51.066Z,58.21
2019-02-17T06:17:40.893Z,58.17
2019-02-17T06:20:30.835Z,58.13
2019-02-17T06:23:20.942Z,58.17
2019-02-17T06:26:11.869Z,58.13
2019-02-17T06:29:01.628Z,58.05
2019-02-17T06:31:51.367Z,58.07
2019-02-17T06:34:41.262Z,58.10
2019-02-17T06:37:31.384Z,58.16
2019-02-17T06:40:21.011Z,58.28
2019-02-17T06:43:11.217Z,58.26
2019-02-17T06:46:01.436Z,58.35
2019-02-17T06:48:51.384Z,58.34
2019-02-17T06:51:41.229Z,58.24
2019-02-17T06:54:31.671Z,58.23
2019-02-17T06:57:29.212Z,58.19
2019-02-17T07:00:31.943Z,58.39
2019-02-17T07:03:21.641Z,58.24
2019-02-17T07:06:16.247Z,57.32
2019-02-17T07:09:07.420Z,56.17
2019-02-17T07:11:57.540Z,54.90
2019-02-17T07:14:47.066Z,53.72
2019-02-17T07:17:37.169Z,52.60
2019-02-17T07:20:27.468Z,51.31
2019-02-17T07:23:17.423Z,50.21
2019-02-17T07:26:07.303Z,49.14
2019-02-17T07:28:57.330Z,48.07
2019-02-17T07:31:47.388Z,47.05
2019-02-17T07:34:37.183Z,45.86
2019-02-17T07:37:33.402Z,45.57
2019-02-17T07:40:18.233Z,45.65
2019-02-17T07:43:08.299Z,45.89
2019-02-17T07:45:58.187Z,46.16
2019-02-17T07:48:48.408Z,46.23
2019-02-17T07:51:38.121Z,45.82
2019-02-17T07:54:28.217Z,46.10
2019-02-17T07:57:18.823Z,46.31
2019-02-17T08:00:09.128Z,46.75
2019-02-17T08:02:58.891Z,47.08
2019-02-17T08:05:48.406Z,47.59
2019-02-17T08:08:38.032Z,47.30
2019-02-17T08:11:28.530Z,47.49
2019-02-17T08:14:18.417Z,48.19
2019-02-17T08:17:08.218Z,48.51
2019-02-17T08:19:58.001Z,48.79
2019-02-17T08:22:48.058Z,49.10
2019-02-17T08:25:37.933Z,49.01
2019-02-17T08:28:27.969Z,48.25
2019-02-17T08:31:17.832Z,47.70
2019-02-17T08:34:08.202Z,45.91
2019-02-17T08:36:58.095Z,45.83
2019-02-17T08:39:47.188Z,45.23
2019-02-17T08:42:37.029Z,45.04
2019-02-17T08:45:27.090Z,45.04
2019-02-17T08:48:17.092Z,44.70
2019-02-17T08:51:07.089Z,45.13
2019-02-17T08:53:57.079Z,44.83
2019-02-17T08:56:47.098Z,44.97
2019-02-17T08:59:36.926Z,45.86
2019-02-17T09:02:25.956Z,46.17
2019-02-17T09:05:15.676Z,46.47
2019-02-17T09:08:05.783Z,45.91
2019-02-17T09:10:55.667Z,44.48
2019-02-17T09:13:48.308Z,44.61
2019-02-17T09:16:37.900Z,44.86
2019-02-17T09:19:27.647Z,45.15
2019-02-17T09:22:18.122Z,44.61
2019-02-17T09:25:10.103Z,44.45
2019-02-17T09:27:59.660Z,43.52
2019-02-17T09:30:49.330Z,43.64
2019-02-17T09:33:39.349Z,43.68
2019-02-17T09:36:28.810Z,43.14
2019-02-17T09:39:18.586Z,41.79
2019-02-17T09:42:08.713Z,41.67
2019-02-17T09:44:59.373Z,41.37
2019-02-17T09:47:49.732Z,41.19
2019-02-17T09:50:39.701Z,41.36
2019-02-17T09:53:29.481Z,40.40
2019-02-17T09:56:19.311Z,40.52
2019-02-17T09:59:09.249Z,40.36
2019-02-17T10:01:59.279Z,37.41
2019-02-17T10:04:49.073Z,36.57
2019-02-17T10:07:38.960Z,35.93
2019-02-17T10:10:29.188Z,32.28
2019-02-17T10:13:19.255Z,32.64
2019-02-17T10:16:08.919Z,32.42
2019-02-17T10:18:58.565Z,33.32
2019-02-17T10:21:48.306Z,33.32
2019-02-17T10:24:37.901Z,31.49
2019-02-17T10:27:27.637Z,32.57
2019-02-17T10:30:18.275Z,33.34
2019-02-17T10:33:09.379Z,31.97
2019-02-17T10:35:59.618Z,33.02
2019-02-17T10:38:49.473Z,33.31
2019-02-17T10:41:39.273Z,32.83
2019-02-17T10:44:28.828Z,33.68
2019-02-17T10:47:18.399Z,33.12
2019-02-17T10:50:10.226Z,33.19
2019-02-17T10:53:00.127Z,33.30
2019-02-17T10:55:50.211Z,31.92
2019-02-17T10:58:40.401Z,32.94
2019-02-17T11:01:30.645Z,32.84
2019-02-17T11:04:20.391Z,32.19
2019-02-17T11:07:10.319Z,30.64
2019-02-17T11:10:00.288Z,29.33
2019-02-17T11:12:49.774Z,29.82
2019-02-17T11:15:39.880Z,26.39
2019-02-17T11:18:29.964Z,28.39
2019-02-17T11:21:19.979Z,27.24
2019-02-17T11:24:09.930Z,26.28
2019-02-17T11:26:59.675Z,26.12
2019-02-17T11:29:49.488Z,24.32
2019-02-17T11:32:38.974Z,25.95
2019-02-17T11:35:29.889Z,25.48
2019-02-17T11:38:20.380Z,24.84
2019-02-17T11:41:12.528Z,24.74
2019-02-17T11:44:01.891Z,24.85
2019-02-17T11:46:52.055Z,25.14
2019-02-17T11:49:41.824Z,25.28
2019-02-17T11:52:31.497Z,24.36
2019-02-17T11:55:22.776Z,24.35
2019-02-17T11:58:12.802Z,23.99
2019-02-17T12:01:05.167Z,23.22
2019-02-17T12:03:53.934Z,23.18
2019-02-17T12:06:43.768Z,23.36
2019-02-17T12:09:33.705Z,23.75
2019-02-17T12:12:23.794Z,22.72
2019-02-17T12:15:14.524Z,22.66
2019-02-17T12:18:04.643Z,22.59
2019-02-17T12:21:03.825Z,22.61
2019-02-17T12:24:17.848Z,22.47
2019-02-17T12:27:28.108Z,21.25
2019-02-17T12:30:21.666Z,21.26
2019-02-17T12:33:19.147Z,21.59
2019-02-17T12:36:03.313Z,21.74
2019-02-17T12:38:52.979Z,21.70
2019-02-17T12:41:42.895Z,21.81
2019-02-17T12:44:32.452Z,21.41
2019-02-17T12:47:22.371Z,21.51
2019-02-17T12:50:13.584Z,20.95
2019-02-17T12:53:04.773Z,21.50
2019-02-17T12:55:54.935Z,22.28
2019-02-17T12:58:45.244Z,22.45
2019-02-17T13:01:35.078Z,23.57
2019-02-17T13:04:24.814Z,23.80
2019-02-17T13:07:14.784Z,24.98
2019-02-17T13:10:05.128Z,26.18
2019-02-17T13:12:54.778Z,26.85
2019-02-17T13:15:44.854Z,27.36
2019-02-17T13:18:34.841Z,27.71
2019-02-17T13:21:25.102Z,28.26
2019-02-17T13:24:14.997Z,28.32
2019-02-17T13:27:05.036Z,29.05
2019-02-17T13:29:55.758Z,29.28
2019-02-17T13:32:45.661Z,29.74
2019-02-17T13:35:35.452Z,30.56
2019-02-17T13:38:25.569Z,30.72
2019-02-17T13:41:15.370Z,31.12
2019-02-17T13:44:05.545Z,31.29
2019-02-17T13:46:55.079Z,31.42
2019-02-17T13:49:45.203Z,31.41
2019-02-17T13:52:35.065Z,31.44
2019-02-17T13:55:24.775Z,31.36
2019-02-17T13:58:14.750Z,31.56
2019-02-17T14:01:04.598Z,31.42
2019-02-17T14:03:54.356Z,31.65
2019-02-17T14:06:44.186Z,31.67
2019-02-17T14:09:34.533Z,31.96
2019-02-17T14:12:27.224Z,31.81
2019-02-17T14:15:17.506Z,32.21
2019-02-17T14:18:07.261Z,32.11
2019-02-17T14:20:57.454Z,32.54
2019-02-17T14:23:47.437Z,32.82
2019-02-17T14:26:37.280Z,33.17
2019-02-17T14:29:27.015Z,32.76
2019-02-17T14:32:17.078Z,33.31
2019-02-17T14:35:06.565Z,33.55
2019-02-17T14:37:56.620Z,33.93
2019-02-17T14:40:46.436Z,34.14
2019-02-17T14:43:35.752Z,33.40
2019-02-17T14:46:25.407Z,33.52
2019-02-17T14:49:15.149Z,33.93
2019-02-17T14:52:04.975Z,33.78
2019-02-17T14:54:55.013Z,33.91
2019-02-17T14:57:44.738Z,34.05
2019-02-17T15:00:34.744Z,34.25
2019-02-17T15:03:24.656Z,34.09
2019-02-17T15:06:14.635Z,34.74
2019-02-17T15:09:07.089Z,34.94
2019-02-17T15:11:57.753Z,35.24
2019-02-17T15:14:48.032Z,35.35
2019-02-17T15:17:37.788Z,35.34
2019-02-17T15:20:27.574Z,35.52
2019-02-17T15:23:17.124Z,35.63
2019-02-17T15:26:07.291Z,35.96
2019-02-17T15:28:57.329Z,36.20
2019-02-17T15:31:47.214Z,36.26
2019-02-17T15:34:36.714Z,36.48
2019-02-17T15:37:26.793Z,36.56
2019-02-17T15:40:16.002Z,36.66
2019-02-17T15:43:06.072Z,36.91
2019-02-17T15:45:55.900Z,37.04
2019-02-17T15:48:45.730Z,37.25
2019-02-17T15:51:35.923Z,37.36
2019-02-17T15:54:25.957Z,37.55
2019-02-17T15:57:16.033Z,37.72
2019-02-17T16:00:08.040Z,37.87
2019-02-17T16:02:57.930Z,38.02
2019-02-17T16:05:48.021Z,38.19
2019-02-17T16:08:38.192Z,38.32
2019-02-17T16:11:28.001Z,38.47
2019-02-17T16:14:18.178Z,38.76
2019-02-17T16:17:08.493Z,38.93
2019-02-17T16:19:58.509Z,39.14
2019-02-17T16:22:48.517Z,39.29
2019-02-17T16:25:38.389Z,39.44
2019-02-17T16:28:28.421Z,39.55
2019-02-17T16:31:18.104Z,39.80
2019-02-17T16:34:08.140Z,39.92
2019-02-17T16:36:57.860Z,40.14
2019-02-17T16:39:47.194Z,40.27
2019-02-17T16:42:36.820Z,40.47
2019-02-17T16:45:26.077Z,40.88
2019-02-17T16:48:16.069Z,41.13
2019-02-17T16:51:07.024Z,41.38
2019-02-17T16:53:57.440Z,41.62
2019-02-17T16:56:47.482Z,41.95
2019-02-17T16:59:37.331Z,42.21
2019-02-17T17:02:27.427Z,42.37
2019-02-17T17:05:16.969Z,42.65
2019-02-17T17:08:07.025Z,42.89
2019-02-17T17:10:56.401Z,43.12
2019-02-17T17:13:46.208Z,43.36
2019-02-17T17:16:35.684Z,43.74
2019-02-17T17:19:25.746Z,43.90
2019-02-17T17:22:15.030Z,44.20
2019-02-17T17:25:05.741Z,44.35
2019-02-17T17:27:55.216Z,44.51
2019-02-17T17:30:44.821Z,44.75
2019-02-17T17:33:34.550Z,44.85
2019-02-17T17:36:24.013Z,44.90
2019-02-17T17:39:13.996Z,45.09
2019-02-17T17:42:03.919Z,45.47
2019-02-17T17:44:54.373Z,45.47
2019-02-17T17:47:43.973Z,45.68
2019-02-17T17:50:33.974Z,45.83
2019-02-17T17:53:24.092Z,45.82
2019-02-17T17:56:13.759Z,46.03
2019-02-17T17:59:03.533Z,46.28
2019-02-17T18:01:52.897Z,46.51
2019-02-17T18:04:42.923Z,46.76
2019-02-17T18:07:32.629Z,46.77
2019-02-17T18:10:22.508Z,46.87
2019-02-17T18:13:12.536Z,47.04
2019-02-17T18:16:02.598Z,47.28
2019-02-17T18:18:52.615Z,47.39
2019-02-17T18:21:41.991Z,47.53
2019-02-17T18:24:43.692Z,47.70
2019-02-17T18:27:33.637Z,47.75
2019-02-17T18:30:23.715Z,47.97
2019-02-17T18:33:14.006Z,48.08
2019-02-17T18:36:03.665Z,48.31
2019-02-17T18:38:54.114Z,48.43
2019-02-17T18:41:43.682Z,48.64
2019-02-17T18:44:33.716Z,48.87
2019-02-17T18:47:23.340Z,48.97
2019-02-17T18:50:14.100Z,48.99
2019-02-17T18:53:03.288Z,49.04
2019-02-17T18:55:53.065Z,49.07
2019-02-17T18:58:42.285Z,49.20
2019-02-17T19:01:32.106Z,49.39
2019-02-17T19:04:21.805Z,49.51
2019-02-17T19:07:11.692Z,49.65
2019-02-17T19:10:01.617Z,49.68
2019-02-17T19:12:51.472Z,49.87
2019-02-17T19:15:41.147Z,49.93
2019-02-17T19:18:31.161Z,49.97
2019-02-17T19:21:20.945Z,50.05
2019-02-17T19:24:11.050Z,50.14
2019-02-17T19:27:00.898Z,50.09
2019-02-17T19:29:50.735Z,50.14
2019-02-17T19:32:40.646Z,50.25
2019-02-17T19:35:30.623Z,50.15
2019-02-17T19:38:20.209Z,50.08
2019-02-17T19:41:09.938Z,49.92
2019-02-17T19:43:59.756Z,49.73
2019-02-17T19:46:49.707Z,49.56
2019-02-17T19:49:39.723Z,49.50
2019-02-17T19:52:29.964Z,49.16
2019-02-17T19:55:19.700Z,48.89
2019-02-17T19:58:08.995Z,48.76
2019-02-17T20:00:58.282Z,48.60
2019-02-17T20:04:18.413Z,48.35
2019-02-17T20:07:07.702Z,48.21
2019-02-17T20:09:57.537Z,48.04
2019-02-17T20:12:47.209Z,47.90
2019-02-17T20:15:36.883Z,47.85
2019-02-17T20:18:26.189Z,47.79
2019-02-17T20:21:15.606Z,47.77
2019-02-17T20:24:07.986Z,47.77
2019-02-17T20:26:56.973Z,47.74
2019-02-17T20:29:47.099Z,47.80
2019-02-17T20:32:37.331Z,47.76
2019-02-17T20:35:27.228Z,47.81
2019-02-17T20:38:17.277Z,47.87
2019-02-17T20:41:07.038Z,47.89
2019-02-17T20:43:56.812Z,47.87
2019-02-17T20:46:47.147Z,47.87
2019-02-17T20:49:37.235Z,47.87
2019-02-17T20:52:27.104Z,47.95
2019-02-17T20:55:21.665Z,47.99
2019-02-17T20:58:11.760Z,48.05
2019-02-17T21:01:01.834Z,48.08
2019-02-17T21:03:51.623Z,48.19
2019-02-17T21:06:41.917Z,48.30
2019-02-17T21:09:32.573Z,48.35
2019-02-17T21:12:22.657Z,48.41
2019-02-17T21:15:13.266Z,48.44
2019-02-17T21:18:03.366Z,48.42
2019-02-17T21:20:53.133Z,48.33
2019-02-17T21:23:43.057Z,48.27
2019-02-17T21:26:32.580Z,48.19
2019-02-17T21:29:22.442Z,48.14
2019-02-17T21:32:12.384Z,48.04
2019-02-17T21:35:02.471Z,47.94
2019-02-17T21:37:52.458Z,47.80
2019-02-17T21:40:42.519Z,47.74
2019-02-17T21:43:32.100Z,47.68
2019-02-17T21:46:21.852Z,47.57
2019-02-17T21:49:11.768Z,47.54
2019-02-17T21:52:02.351Z,47.53
2019-02-17T21:54:52.357Z,47.36
2019-02-17T21:57:42.550Z,47.43
2019-02-17T22:00:32.166Z,47.43
2019-02-17T22:03:21.688Z,47.43
2019-02-17T22:06:11.949Z,47.40
2019-02-17T22:09:01.439Z,47.33
2019-02-17T22:11:53.241Z,47.36
2019-02-17T22:14:43.347Z,47.43
2019-02-17T22:17:34.483Z,47.42
2019-02-17T22:20:24.520Z,47.40
2019-02-17T22:23:14.590Z,47.40
2019-02-17T22:26:04.319Z,47.43
2019-02-17T22:28:54.371Z,47.46
2019-02-17T22:31:44.265Z,47.49
2019-02-17T22:34:33.980Z,47.47
2019-02-17T22:37:23.738Z,47.46
2019-02-17T22:40:13.493Z,47.51
2019-02-17T22:43:03.117Z,47.62
2019-02-17T22:45:53.300Z,47.70
2019-02-17T22:48:42.891Z,47.76
2019-02-17T22:51:32.714Z,47.95
2019-02-17T22:54:22.808Z,48.06
2019-02-17T22:57:12.154Z,48.11
2019-02-17T23:00:01.836Z,48.18
2019-02-17T23:02:53.464Z,48.30
2019-02-17T23:05:43.899Z,48.45
2019-02-17T23:08:33.920Z,48.48
2019-02-17T23:11:24.077Z,48.65
2019-02-17T23:14:14.423Z,48.80
2019-02-17T23:17:03.970Z,48.87
2019-02-17T23:19:54.120Z,48.89
2019-02-17T23:22:44.215Z,48.92
2019-02-17T23:25:34.589Z,48.91
2019-02-17T23:28:24.637Z,48.84
2019-02-17T23:31:16.961Z,48.89
2019-02-17T23:34:07.012Z,48.94
2019-02-17T23:37:04.001Z,48.92
2019-02-17T23:39:50.524Z,48.91
2019-02-17T23:42:40.493Z,49.01
2019-02-17T23:45:30.314Z,49.14
2019-02-17T23:48:20.101Z,49.21
2019-02-17T23:51:10.178Z,49.34
2019-02-17T23:54:00.456Z,49.46
2019-02-17T23:56:52.358Z,49.45
2019-02-17T23:59:42.130Z,49.58
